createdAt,value
2018-04-02T00:00:00.545Z,17.702784
2018-04-02T00:00:12.839Z,14.484096
2018-04-02T00:00:25.600Z,14.484096
2018-04-02T00:00:37.737Z,20.921472
2018-04-02T00:00:49.905Z,24.14016
2018-04-02T00:01:02.392Z,24.14016
2018-04-02T00:01:14.538Z,20.921472
2018-04-02T00:01:26.670Z,20.921472
2018-04-02T00:01:38.841Z,25.749504
2018-04-02T00:01:51.008Z,25.749504
2018-04-02T00:02:03.186Z,25.749504
2018-04-02T00:02:15.342Z,19.312128
2018-04-02T00:02:27.467Z,19.312128
2018-04-02T00:02:39.599Z,19.312128
2018-04-02T00:02:51.745Z,19.312128
2018-04-02T00:03:03.941Z,8.04672
2018-04-02T00:03:16.086Z,12.874752
2018-04-02T00:03:28.225Z,12.874752
2018-04-02T00:03:40.391Z,16.09344
2018-04-02T00:03:52.540Z,16.09344
2018-04-02T00:04:04.673Z,16.09344
2018-04-02T00:04:16.847Z,19.312128
2018-04-02T00:04:29.006Z,19.312128
2018-04-02T00:04:41.303Z,19.312128
2018-04-02T00:04:53.458Z,19.312128
2018-04-02T00:05:05.597Z,11.265408
2018-04-02T00:05:17.777Z,12.874752
2018-04-02T00:05:29.924Z,20.921472
2018-04-02T00:05:42.077Z,20.921472
2018-04-02T00:05:54.218Z,20.921472
2018-04-02T00:06:06.393Z,20.921472
2018-04-02T00:06:18.535Z,20.921472
2018-04-02T00:06:30.852Z,20.921472
2018-04-02T00:06:43.018Z,20.921472
2018-04-02T00:06:55.174Z,20.921472
2018-04-02T00:07:07.319Z,16.09344
2018-04-02T00:07:19.490Z,16.09344
2018-04-02T00:07:31.637Z,16.09344
2018-04-02T00:07:44.039Z,16.09344
2018-04-02T00:07:56.186Z,16.09344
2018-04-02T00:08:08.372Z,11.265408
2018-04-02T00:08:20.501Z,12.874752
2018-04-02T00:08:32.653Z,14.484096
2018-04-02T00:08:44.797Z,20.921472
2018-04-02T00:08:57.340Z,20.921472
2018-04-02T00:09:09.638Z,17.702784
2018-04-02T00:09:21.774Z,17.702784
2018-04-02T00:09:33.934Z,17.702784
2018-04-02T00:09:46.065Z,17.702784
2018-04-02T00:09:58.215Z,17.702784
2018-04-02T00:10:10.362Z,17.702784
2018-04-02T00:10:22.508Z,22.530816
2018-04-02T00:10:34.661Z,22.530816
2018-04-02T00:10:46.817Z,22.530816
2018-04-02T00:10:58.999Z,22.530816
2018-04-02T00:11:11.161Z,14.484096
2018-04-02T00:11:23.286Z,19.312128
2018-04-02T00:11:35.431Z,22.530816
2018-04-02T00:11:47.602Z,22.530816
2018-04-02T00:11:59.742Z,22.530816
2018-04-02T00:12:11.887Z,19.312128
2018-04-02T00:12:24.037Z,22.530816
2018-04-02T00:12:36.172Z,22.530816
2018-04-02T00:12:48.446Z,22.530816
2018-04-02T00:13:00.822Z,22.530816
2018-04-02T00:13:12.975Z,16.09344
2018-04-02T00:13:25.121Z,16.09344
2018-04-02T00:13:37.273Z,16.09344
2018-04-02T00:13:49.414Z,16.09344
2018-04-02T00:14:01.550Z,17.702784
2018-04-02T00:14:13.700Z,16.09344
2018-04-02T00:14:25.843Z,16.09344
2018-04-02T00:14:37.987Z,19.312128
2018-04-02T00:14:50.136Z,24.14016
2018-04-02T00:15:02.277Z,30.577536
2018-04-02T00:15:14.436Z,22.530816
2018-04-02T00:15:26.585Z,22.530816
2018-04-02T00:15:38.939Z,22.530816
2018-04-02T00:15:51.081Z,22.530816
2018-04-02T00:16:03.242Z,22.530816
2018-04-02T00:16:15.376Z,24.14016
2018-04-02T00:16:27.975Z,24.14016
2018-04-02T00:16:40.188Z,24.14016
2018-04-02T00:16:52.330Z,24.14016
2018-04-02T00:17:04.484Z,20.921472
2018-04-02T00:17:16.613Z,25.749504
2018-04-02T00:17:28.780Z,25.749504
2018-04-02T00:17:40.931Z,25.749504
2018-04-02T00:17:53.092Z,25.749504
2018-04-02T00:18:05.313Z,17.702784
2018-04-02T00:18:17.690Z,24.14016
2018-04-02T00:18:29.850Z,24.14016
2018-04-02T00:18:41.990Z,24.14016
2018-04-02T00:18:54.137Z,24.14016
2018-04-02T00:19:06.320Z,12.874752
2018-04-02T00:19:18.465Z,16.09344
2018-04-02T00:19:30.633Z,20.921472
2018-04-02T00:19:42.763Z,25.749504
2018-04-02T00:19:54.915Z,25.749504
2018-04-02T00:20:07.062Z,17.702784
2018-04-02T00:20:19.194Z,19.312128
2018-04-02T00:20:31.354Z,19.312128
2018-04-02T00:20:43.500Z,20.921472
2018-04-02T00:20:55.655Z,20.921472
2018-04-02T00:21:07.806Z,19.312128
2018-04-02T00:21:19.942Z,24.14016
2018-04-02T00:21:32.103Z,28.968192
2018-04-02T00:21:44.295Z,28.968192
2018-04-02T00:21:56.446Z,28.968192
2018-04-02T00:22:08.602Z,17.702784
2018-04-02T00:22:20.739Z,24.14016
2018-04-02T00:22:32.915Z,24.14016
2018-04-02T00:22:45.075Z,24.14016
2018-04-02T00:22:57.272Z,24.14016
2018-04-02T00:23:09.471Z,16.09344
2018-04-02T00:23:21.617Z,16.09344
2018-04-02T00:23:33.753Z,16.09344
2018-04-02T00:23:45.895Z,22.530816
2018-04-02T00:23:58.121Z,22.530816
2018-04-02T00:24:10.553Z,20.921472
2018-04-02T00:24:22.772Z,20.921472
2018-04-02T00:24:34.974Z,20.921472
2018-04-02T00:24:47.129Z,20.921472
2018-04-02T00:24:59.278Z,22.530816
2018-04-02T00:25:11.439Z,9.656064
2018-04-02T00:25:23.586Z,20.921472
2018-04-02T00:25:35.745Z,22.530816
2018-04-02T00:25:47.880Z,22.530816
2018-04-02T00:26:00.032Z,22.530816
2018-04-02T00:26:12.168Z,14.484096
2018-04-02T00:26:24.303Z,14.484096
2018-04-02T00:26:36.607Z,14.484096
2018-04-02T00:26:48.763Z,14.484096
2018-04-02T00:27:01.541Z,16.09344
2018-04-02T00:27:13.691Z,16.09344
2018-04-02T00:27:25.873Z,16.09344
2018-04-02T00:27:38.036Z,16.09344
2018-04-02T00:27:50.180Z,17.702784
2018-04-02T00:28:02.389Z,17.702784
2018-04-02T00:28:14.542Z,9.656064
2018-04-02T00:28:26.687Z,12.874752
2018-04-02T00:28:38.837Z,19.312128
2018-04-02T00:28:51.002Z,19.312128
2018-04-02T00:29:03.194Z,19.312128
2018-04-02T00:29:15.359Z,9.656064
2018-04-02T00:29:27.502Z,9.656064
2018-04-02T00:29:39.724Z,12.874752
2018-04-02T00:29:51.863Z,12.874752
2018-04-02T00:30:04.002Z,8.04672
2018-04-02T00:30:16.141Z,14.484096
2018-04-02T00:30:28.265Z,19.312128
2018-04-02T00:30:40.458Z,19.312128
2018-04-02T00:30:52.625Z,19.312128
2018-04-02T00:31:04.794Z,11.265408
2018-04-02T00:31:16.939Z,11.265408
2018-04-02T00:31:29.096Z,19.312128
2018-04-02T00:31:41.283Z,19.312128
2018-04-02T00:31:53.429Z,19.312128
2018-04-02T00:32:05.574Z,14.484096
2018-04-02T00:32:17.709Z,14.484096
2018-04-02T00:32:29.848Z,16.09344
2018-04-02T00:32:41.977Z,16.09344
2018-04-02T00:32:54.124Z,16.09344
2018-04-02T00:33:06.277Z,14.484096
2018-04-02T00:33:18.410Z,14.484096
2018-04-02T00:33:30.761Z,16.09344
2018-04-02T00:33:43.042Z,16.09344
2018-04-02T00:33:55.185Z,16.09344
2018-04-02T00:34:07.357Z,19.312128
2018-04-02T00:34:19.499Z,19.312128
2018-04-02T00:34:31.639Z,19.312128
2018-04-02T00:34:43.775Z,19.312128
2018-04-02T00:34:55.940Z,19.312128
2018-04-02T00:35:08.097Z,8.04672
2018-04-02T00:35:20.227Z,14.484096
2018-04-02T00:35:32.389Z,16.09344
2018-04-02T00:35:44.526Z,16.09344
2018-04-02T00:35:56.680Z,16.09344
2018-04-02T00:36:08.839Z,12.874752
2018-04-02T00:36:20.992Z,17.702784
2018-04-02T00:36:33.184Z,17.702784
2018-04-02T00:36:45.310Z,17.702784
2018-04-02T00:36:57.464Z,17.702784
2018-04-02T00:37:09.622Z,14.484096
2018-04-02T00:37:21.756Z,14.484096
2018-04-02T00:37:33.947Z,19.312128
2018-04-02T00:37:46.085Z,20.921472
2018-04-02T00:37:58.220Z,20.921472
2018-04-02T00:38:10.365Z,16.09344
2018-04-02T00:38:22.522Z,16.09344
2018-04-02T00:38:34.667Z,16.09344
2018-04-02T00:38:46.829Z,16.09344
2018-04-02T00:38:58.981Z,16.09344
2018-04-02T00:39:11.234Z,14.484096
2018-04-02T00:39:23.379Z,22.530816
2018-04-02T00:39:35.547Z,22.530816
2018-04-02T00:39:47.700Z,22.530816
2018-04-02T00:39:59.852Z,22.530816
2018-04-02T00:40:12.034Z,22.530816
2018-04-02T00:40:24.198Z,22.530816
2018-04-02T00:40:36.337Z,22.530816
2018-04-02T00:40:48.470Z,22.530816
2018-04-02T00:41:00.614Z,22.530816
2018-04-02T00:41:12.775Z,12.874752
2018-04-02T00:41:24.973Z,12.874752
2018-04-02T00:41:37.145Z,17.702784
2018-04-02T00:41:49.295Z,17.702784
2018-04-02T00:42:01.441Z,17.702784
2018-04-02T00:42:13.594Z,12.874752
2018-04-02T00:42:25.763Z,16.09344
2018-04-02T00:42:37.903Z,16.09344
2018-04-02T00:42:50.047Z,16.09344
2018-04-02T00:43:02.288Z,19.312128
2018-04-02T00:43:14.429Z,19.312128
2018-04-02T00:43:26.574Z,19.312128
2018-04-02T00:43:39.012Z,22.530816
2018-04-02T00:43:51.364Z,22.530816
2018-04-02T00:44:03.539Z,14.484096
2018-04-02T00:44:15.681Z,16.09344
2018-04-02T00:44:27.819Z,16.09344
2018-04-02T00:44:39.967Z,16.09344
2018-04-02T00:44:52.320Z,16.09344
2018-04-02T00:45:04.486Z,16.09344
2018-04-02T00:45:16.632Z,16.09344
2018-04-02T00:45:28.797Z,17.702784
2018-04-02T00:45:40.960Z,17.702784
2018-04-02T00:45:53.117Z,17.702784
2018-04-02T00:46:05.296Z,14.484096
2018-04-02T00:46:17.450Z,20.921472
2018-04-02T00:46:29.642Z,20.921472
2018-04-02T00:46:41.814Z,20.921472
2018-04-02T00:46:53.964Z,20.921472
2018-04-02T00:47:06.102Z,12.874752
2018-04-02T00:47:18.290Z,17.702784
2018-04-02T00:47:30.429Z,17.702784
2018-04-02T00:47:42.561Z,17.702784
2018-04-02T00:47:54.850Z,17.702784
2018-04-02T00:48:06.973Z,11.265408
2018-04-02T00:48:19.133Z,12.874752
2018-04-02T00:48:31.263Z,14.484096
2018-04-02T00:48:43.420Z,14.484096
2018-04-02T00:48:55.774Z,16.09344
2018-04-02T00:49:08.074Z,16.09344
2018-04-02T00:49:20.202Z,16.09344
2018-04-02T00:49:32.363Z,16.09344
2018-04-02T00:49:44.561Z,16.09344
2018-04-02T00:49:56.745Z,16.09344
2018-04-02T00:50:08.946Z,8.04672
2018-04-02T00:50:21.090Z,14.484096
2018-04-02T00:50:33.229Z,14.484096
2018-04-02T00:50:45.397Z,14.484096
2018-04-02T00:50:57.532Z,14.484096
2018-04-02T00:51:09.814Z,14.484096
2018-04-02T00:51:21.962Z,14.484096
2018-04-02T00:51:34.163Z,14.484096
2018-04-02T00:51:46.451Z,14.484096
2018-04-02T00:51:58.597Z,14.484096
2018-04-02T00:52:10.733Z,14.484096
2018-04-02T00:52:22.895Z,14.484096
2018-04-02T00:52:35.033Z,14.484096
2018-04-02T00:52:47.183Z,14.484096
2018-04-02T00:52:59.310Z,14.484096
2018-04-02T00:53:11.457Z,9.656064
2018-04-02T00:53:23.612Z,17.702784
2018-04-02T00:53:35.744Z,19.312128
2018-04-02T00:53:47.892Z,19.312128
2018-04-02T00:54:00.197Z,19.312128
2018-04-02T00:54:12.330Z,17.702784
2018-04-02T00:54:24.466Z,17.702784
2018-04-02T00:54:36.648Z,17.702784
2018-04-02T00:54:48.772Z,17.702784
2018-04-02T00:55:00.906Z,17.702784
2018-04-02T00:55:13.194Z,12.874752
2018-04-02T00:55:25.348Z,12.874752
2018-04-02T00:55:37.483Z,12.874752
2018-04-02T00:55:49.627Z,16.09344
2018-04-02T00:56:01.774Z,16.09344
2018-04-02T00:56:13.908Z,11.265408
2018-04-02T00:56:26.054Z,12.874752
2018-04-02T00:56:38.190Z,17.702784
2018-04-02T00:56:50.335Z,25.749504
2018-04-02T00:57:02.477Z,25.749504
2018-04-02T00:57:14.606Z,16.09344
2018-04-02T00:57:26.775Z,17.702784
2018-04-02T00:57:38.977Z,17.702784
2018-04-02T00:57:51.133Z,17.702784
2018-04-02T00:58:03.263Z,17.702784
2018-04-02T00:58:15.399Z,11.265408
2018-04-02T00:58:27.537Z,14.484096
2018-04-02T00:58:39.666Z,14.484096
2018-04-02T00:58:51.871Z,19.312128
2018-04-02T00:59:04.024Z,12.874752
2018-04-02T00:59:16.197Z,12.874752
2018-04-02T00:59:28.347Z,12.874752
2018-04-02T00:59:40.543Z,12.874752
2018-04-02T00:59:52.701Z,12.874752
2018-04-02T01:00:04.856Z,16.09344
2018-04-02T01:00:17.035Z,16.09344
2018-04-02T01:00:29.189Z,16.09344
2018-04-02T01:00:41.399Z,16.09344
2018-04-02T01:00:53.535Z,16.09344
2018-04-02T01:01:05.835Z,8.04672
2018-04-02T01:01:17.979Z,8.04672
2018-04-02T01:01:30.121Z,9.656064
2018-04-02T01:01:42.254Z,12.874752
2018-04-02T01:01:54.401Z,12.874752
2018-04-02T01:02:06.545Z,4.828032
2018-04-02T01:02:18.686Z,8.04672
2018-04-02T01:02:30.835Z,19.312128
2018-04-02T01:02:42.997Z,19.312128
2018-04-02T01:02:55.162Z,19.312128
2018-04-02T01:03:07.315Z,19.312128
2018-04-02T01:03:19.472Z,20.921472
2018-04-02T01:03:31.604Z,20.921472
2018-04-02T01:03:43.741Z,20.921472
2018-04-02T01:03:55.932Z,20.921472
2018-04-02T01:04:08.069Z,16.09344
2018-04-02T01:04:20.216Z,16.09344
2018-04-02T01:04:32.361Z,16.09344
2018-04-02T01:04:44.670Z,16.09344
2018-04-02T01:04:56.807Z,19.312128
2018-04-02T01:05:09.003Z,16.09344
2018-04-02T01:05:21.419Z,16.09344
2018-04-02T01:05:33.600Z,16.09344
2018-04-02T01:05:45.729Z,17.702784
2018-04-02T01:05:57.864Z,17.702784
2018-04-02T01:06:10.005Z,14.484096
2018-04-02T01:06:22.181Z,16.09344
2018-04-02T01:06:34.328Z,16.09344
2018-04-02T01:06:46.476Z,16.09344
2018-04-02T01:06:58.652Z,16.09344
2018-04-02T01:07:10.791Z,12.874752
2018-04-02T01:07:22.958Z,14.484096
2018-04-02T01:07:35.097Z,14.484096
2018-04-02T01:07:47.329Z,14.484096
2018-04-02T01:07:59.476Z,14.484096
2018-04-02T01:08:11.630Z,8.04672
2018-04-02T01:08:23.763Z,8.04672
2018-04-02T01:08:35.911Z,16.09344
2018-04-02T01:08:48.060Z,16.09344
2018-04-02T01:09:00.216Z,16.09344
2018-04-02T01:09:12.353Z,9.656064
2018-04-02T01:09:24.501Z,9.656064
2018-04-02T01:09:36.655Z,12.874752
2018-04-02T01:09:48.786Z,12.874752
2018-04-02T01:10:00.937Z,12.874752
2018-04-02T01:10:13.125Z,6.437376
2018-04-02T01:10:25.264Z,12.874752
2018-04-02T01:10:37.408Z,12.874752
2018-04-02T01:10:49.564Z,16.09344
2018-04-02T01:11:01.707Z,16.09344
2018-04-02T01:11:13.903Z,14.484096
2018-04-02T01:11:26.052Z,14.484096
2018-04-02T01:11:38.195Z,14.484096
2018-04-02T01:11:50.331Z,16.09344
2018-04-02T01:12:02.457Z,17.702784
2018-04-02T01:12:14.586Z,12.874752
2018-04-02T01:12:26.744Z,12.874752
2018-04-02T01:12:38.908Z,16.09344
2018-04-02T01:12:51.096Z,16.09344
2018-04-02T01:13:03.661Z,11.265408
2018-04-02T01:13:15.805Z,12.874752
2018-04-02T01:13:27.960Z,12.874752
2018-04-02T01:13:40.109Z,12.874752
2018-04-02T01:13:52.237Z,12.874752
2018-04-02T01:14:04.383Z,17.702784
2018-04-02T01:14:16.535Z,17.702784
2018-04-02T01:14:28.740Z,17.702784
2018-04-02T01:14:40.942Z,17.702784
2018-04-02T01:14:53.074Z,17.702784
2018-04-02T01:15:05.219Z,12.874752
2018-04-02T01:15:17.361Z,12.874752
2018-04-02T01:15:29.507Z,14.484096
2018-04-02T01:15:41.645Z,14.484096
2018-04-02T01:15:53.776Z,16.09344
2018-04-02T01:16:05.918Z,11.265408
2018-04-02T01:16:18.061Z,12.874752
2018-04-02T01:16:30.192Z,12.874752
2018-04-02T01:16:42.349Z,12.874752
2018-04-02T01:16:54.495Z,12.874752
2018-04-02T01:17:06.646Z,8.04672
2018-04-02T01:17:18.783Z,9.656064
2018-04-02T01:17:30.914Z,9.656064
2018-04-02T01:17:43.083Z,14.484096
2018-04-02T01:17:55.232Z,14.484096
2018-04-02T01:18:07.540Z,9.656064
2018-04-02T01:18:19.680Z,9.656064
2018-04-02T01:18:31.821Z,12.874752
2018-04-02T01:18:43.976Z,16.09344
2018-04-02T01:18:56.109Z,16.09344
2018-04-02T01:19:08.266Z,17.702784
2018-04-02T01:19:20.405Z,17.702784
2018-04-02T01:19:32.550Z,17.702784
2018-04-02T01:19:44.700Z,17.702784
2018-04-02T01:19:56.845Z,17.702784
2018-04-02T01:20:09.110Z,12.874752
2018-04-02T01:20:21.229Z,12.874752
2018-04-02T01:20:33.368Z,12.874752
2018-04-02T01:20:45.556Z,12.874752
2018-04-02T01:20:57.688Z,12.874752
2018-04-02T01:21:09.819Z,6.437376
2018-04-02T01:21:21.967Z,6.437376
2018-04-02T01:21:34.112Z,9.656064
2018-04-02T01:21:46.265Z,9.656064
2018-04-02T01:21:58.391Z,9.656064
2018-04-02T01:22:10.544Z,8.04672
2018-04-02T01:22:22.714Z,11.265408
2018-04-02T01:22:34.862Z,12.874752
2018-04-02T01:22:47.009Z,14.484096
2018-04-02T01:22:59.206Z,14.484096
2018-04-02T01:23:11.358Z,11.265408
2018-04-02T01:23:23.546Z,16.09344
2018-04-02T01:23:35.719Z,16.09344
2018-04-02T01:23:47.855Z,16.09344
2018-04-02T01:24:00.006Z,16.09344
2018-04-02T01:24:12.146Z,8.04672
2018-04-02T01:24:24.285Z,12.874752
2018-04-02T01:24:36.429Z,12.874752
2018-04-02T01:24:48.566Z,16.09344
2018-04-02T01:25:00.733Z,16.09344
2018-04-02T01:25:12.910Z,11.265408
2018-04-02T01:25:25.049Z,12.874752
2018-04-02T01:25:37.242Z,12.874752
2018-04-02T01:25:49.384Z,12.874752
2018-04-02T01:26:01.521Z,12.874752
2018-04-02T01:26:13.688Z,16.09344
2018-04-02T01:26:25.841Z,16.09344
2018-04-02T01:26:38.108Z,16.09344
2018-04-02T01:26:50.248Z,16.09344
2018-04-02T01:27:02.399Z,16.09344
2018-04-02T01:27:14.582Z,16.09344
2018-04-02T01:27:26.735Z,16.09344
2018-04-02T01:27:38.871Z,16.09344
2018-04-02T01:27:51.008Z,16.09344
2018-04-02T01:28:03.139Z,16.09344
2018-04-02T01:28:15.285Z,14.484096
2018-04-02T01:28:27.425Z,14.484096
2018-04-02T01:28:39.580Z,14.484096
2018-04-02T01:28:52.344Z,14.484096
2018-04-02T01:29:04.498Z,9.656064
2018-04-02T01:29:16.660Z,12.874752
2018-04-02T01:29:29.528Z,16.09344
2018-04-02T01:29:41.678Z,19.312128
2018-04-02T01:29:53.805Z,19.312128
2018-04-02T01:30:05.940Z,16.09344
2018-04-02T01:30:18.133Z,16.09344
2018-04-02T01:30:30.272Z,16.09344
2018-04-02T01:30:42.418Z,16.09344
2018-04-02T01:30:54.607Z,16.09344
2018-04-02T01:31:06.740Z,12.874752
2018-04-02T01:31:18.895Z,12.874752
2018-04-02T01:31:31.090Z,14.484096
2018-04-02T01:31:43.270Z,16.09344
2018-04-02T01:31:55.442Z,16.09344
2018-04-02T01:32:08.213Z,16.09344
2018-04-02T01:32:20.360Z,20.921472
2018-04-02T01:32:32.513Z,20.921472
2018-04-02T01:32:44.650Z,20.921472
2018-04-02T01:32:56.792Z,20.921472
2018-04-02T01:33:08.939Z,19.312128
2018-04-02T01:33:21.087Z,19.312128
2018-04-02T01:33:33.221Z,19.312128
2018-04-02T01:33:45.361Z,19.312128
2018-04-02T01:33:57.513Z,19.312128
2018-04-02T01:34:09.655Z,11.265408
2018-04-02T01:34:21.806Z,12.874752
2018-04-02T01:34:33.945Z,14.484096
2018-04-02T01:34:46.090Z,14.484096
2018-04-02T01:34:58.399Z,14.484096
2018-04-02T01:35:10.839Z,9.656064
2018-04-02T01:35:22.974Z,9.656064
2018-04-02T01:35:35.107Z,11.265408
2018-04-02T01:35:47.240Z,14.484096
2018-04-02T01:36:00.014Z,14.484096
2018-04-02T01:36:12.268Z,8.04672
2018-04-02T01:36:24.414Z,8.04672
2018-04-02T01:36:36.725Z,8.04672
2018-04-02T01:36:48.979Z,8.04672
2018-04-02T01:37:01.123Z,8.04672
2018-04-02T01:37:13.254Z,8.04672
2018-04-02T01:37:25.423Z,9.656064
2018-04-02T01:37:37.580Z,9.656064
2018-04-02T01:37:49.719Z,16.09344
2018-04-02T01:38:01.848Z,16.09344
2018-04-02T01:38:14.006Z,12.874752
2018-04-02T01:38:26.173Z,16.09344
2018-04-02T01:38:38.356Z,16.09344
2018-04-02T01:38:50.555Z,16.09344
2018-04-02T01:39:02.695Z,16.09344
2018-04-02T01:39:14.823Z,6.437376
2018-04-02T01:39:26.972Z,6.437376
2018-04-02T01:39:39.096Z,6.437376
2018-04-02T01:39:51.265Z,9.656064
2018-04-02T01:40:03.408Z,9.656064
2018-04-02T01:40:15.572Z,8.04672
2018-04-02T01:40:27.703Z,8.04672
2018-04-02T01:40:39.840Z,8.04672
2018-04-02T01:40:51.979Z,12.874752
2018-04-02T01:41:04.182Z,8.04672
2018-04-02T01:41:16.326Z,9.656064
2018-04-02T01:41:28.460Z,12.874752
2018-04-02T01:41:40.663Z,16.09344
2018-04-02T01:41:52.792Z,17.702784
2018-04-02T01:42:04.925Z,8.04672
2018-04-02T01:42:17.053Z,11.265408
2018-04-02T01:42:29.186Z,11.265408
2018-04-02T01:42:41.355Z,11.265408
2018-04-02T01:42:53.546Z,11.265408
2018-04-02T01:43:05.685Z,8.04672
2018-04-02T01:43:17.847Z,11.265408
2018-04-02T01:43:29.980Z,11.265408
2018-04-02T01:43:42.134Z,11.265408
2018-04-02T01:43:54.282Z,19.312128
2018-04-02T01:44:06.420Z,17.702784
2018-04-02T01:44:18.593Z,17.702784
2018-04-02T01:44:30.808Z,17.702784
2018-04-02T01:44:42.951Z,17.702784
2018-04-02T01:44:55.093Z,17.702784
2018-04-02T01:45:07.245Z,14.484096
2018-04-02T01:45:19.395Z,19.312128
2018-04-02T01:45:31.548Z,19.312128
2018-04-02T01:45:43.699Z,19.312128
2018-04-02T01:45:55.895Z,19.312128
2018-04-02T01:46:08.033Z,16.09344
2018-04-02T01:46:20.180Z,17.702784
2018-04-02T01:46:32.339Z,17.702784
2018-04-02T01:46:44.495Z,17.702784
2018-04-02T01:46:56.649Z,17.702784
2018-04-02T01:47:08.809Z,9.656064
2018-04-02T01:47:20.950Z,9.656064
2018-04-02T01:47:33.153Z,9.656064
2018-04-02T01:47:45.321Z,9.656064
2018-04-02T01:47:57.563Z,9.656064
2018-04-02T01:48:09.898Z,9.656064
2018-04-02T01:48:22.049Z,9.656064
2018-04-02T01:48:34.222Z,9.656064
2018-04-02T01:48:46.362Z,12.874752
2018-04-02T01:48:58.514Z,12.874752
2018-04-02T01:49:10.768Z,8.04672
2018-04-02T01:49:22.949Z,12.874752
2018-04-02T01:49:35.101Z,12.874752
2018-04-02T01:49:47.233Z,16.09344
2018-04-02T01:49:59.381Z,16.09344
2018-04-02T01:50:11.962Z,9.656064
2018-04-02T01:50:24.105Z,9.656064
2018-04-02T01:50:36.256Z,11.265408
2018-04-02T01:50:48.404Z,17.702784
2018-04-02T01:51:00.548Z,19.312128
2018-04-02T01:51:12.723Z,9.656064
2018-04-02T01:51:24.839Z,9.656064
2018-04-02T01:51:36.981Z,9.656064
2018-04-02T01:51:49.149Z,11.265408
2018-04-02T01:52:01.291Z,14.484096
2018-04-02T01:52:13.429Z,14.484096
2018-04-02T01:52:25.571Z,16.09344
2018-04-02T01:52:37.730Z,16.09344
2018-04-02T01:52:49.878Z,16.09344
2018-04-02T01:53:02.031Z,16.09344
2018-04-02T01:53:14.154Z,12.874752
2018-04-02T01:53:26.303Z,12.874752
2018-04-02T01:53:38.434Z,14.484096
2018-04-02T01:53:50.576Z,14.484096
2018-04-02T01:54:03.040Z,14.484096
2018-04-02T01:54:15.185Z,11.265408
2018-04-02T01:54:27.336Z,17.702784
2018-04-02T01:54:39.490Z,17.702784
2018-04-02T01:54:51.639Z,17.702784
2018-04-02T01:55:03.776Z,16.09344
2018-04-02T01:55:15.953Z,16.09344
2018-04-02T01:55:28.159Z,16.09344
2018-04-02T01:55:40.305Z,16.09344
2018-04-02T01:55:52.435Z,16.09344
2018-04-02T01:56:04.609Z,12.874752
2018-04-02T01:56:16.751Z,16.09344
2018-04-02T01:56:28.904Z,17.702784
2018-04-02T01:56:41.060Z,28.968192
2018-04-02T01:56:53.501Z,28.968192
2018-04-02T01:57:05.963Z,11.265408
2018-04-02T01:57:18.093Z,22.530816
2018-04-02T01:57:30.231Z,22.530816
2018-04-02T01:57:42.369Z,22.530816
2018-04-02T01:57:54.506Z,22.530816
2018-04-02T01:58:06.677Z,8.04672
2018-04-02T01:58:18.842Z,9.656064
2018-04-02T01:58:30.963Z,9.656064
2018-04-02T01:58:43.128Z,11.265408
2018-04-02T01:58:55.285Z,11.265408
2018-04-02T01:59:07.470Z,9.656064
2018-04-02T01:59:19.603Z,9.656064
2018-04-02T01:59:31.733Z,9.656064
2018-04-02T01:59:43.856Z,14.484096
2018-04-02T01:59:55.990Z,14.484096
2018-04-02T02:00:08.149Z,16.09344
2018-04-02T02:00:20.340Z,16.09344
2018-04-02T02:00:32.499Z,20.921472
2018-04-02T02:00:44.663Z,20.921472
2018-04-02T02:00:56.803Z,20.921472
2018-04-02T02:01:09.018Z,16.09344
2018-04-02T02:01:21.180Z,16.09344
2018-04-02T02:01:33.318Z,16.09344
2018-04-02T02:01:45.474Z,20.921472
2018-04-02T02:01:57.613Z,20.921472
2018-04-02T02:02:09.770Z,11.265408
2018-04-02T02:02:21.919Z,16.09344
2018-04-02T02:02:34.058Z,19.312128
2018-04-02T02:02:46.209Z,19.312128
2018-04-02T02:02:58.354Z,19.312128
2018-04-02T02:03:10.563Z,12.874752
2018-04-02T02:03:22.730Z,16.09344
2018-04-02T02:03:34.890Z,16.09344
2018-04-02T02:03:47.054Z,16.09344
2018-04-02T02:03:59.297Z,17.702784
2018-04-02T02:04:11.447Z,11.265408
2018-04-02T02:04:23.589Z,11.265408
2018-04-02T02:04:35.715Z,11.265408
2018-04-02T02:04:47.860Z,12.874752
2018-04-02T02:05:00.013Z,12.874752
2018-04-02T02:05:12.176Z,9.656064
2018-04-02T02:05:24.326Z,11.265408
2018-04-02T02:05:36.462Z,24.14016
2018-04-02T02:05:48.603Z,24.14016
2018-04-02T02:06:00.743Z,24.14016
2018-04-02T02:06:12.874Z,16.09344
2018-04-02T02:06:25.017Z,19.312128
2018-04-02T02:06:37.180Z,19.312128
2018-04-02T02:06:49.328Z,19.312128
2018-04-02T02:07:01.474Z,19.312128
2018-04-02T02:07:13.625Z,11.265408
2018-04-02T02:07:25.814Z,11.265408
2018-04-02T02:07:37.954Z,12.874752
2018-04-02T02:07:50.357Z,14.484096
2018-04-02T02:08:02.508Z,16.09344
2018-04-02T02:08:14.703Z,14.484096
2018-04-02T02:08:26.858Z,16.09344
2018-04-02T02:08:39.012Z,16.09344
2018-04-02T02:08:51.201Z,16.09344
2018-04-02T02:09:03.325Z,16.09344
2018-04-02T02:09:15.477Z,12.874752
2018-04-02T02:09:27.614Z,12.874752
2018-04-02T02:09:39.747Z,16.09344
2018-04-02T02:09:51.871Z,16.09344
2018-04-02T02:10:04.017Z,20.921472
2018-04-02T02:10:16.211Z,25.749504
2018-04-02T02:10:28.346Z,25.749504
2018-04-02T02:10:40.472Z,25.749504
2018-04-02T02:10:52.612Z,25.749504
2018-04-02T02:11:04.776Z,8.04672
2018-04-02T02:11:16.929Z,19.312128
2018-04-02T02:11:29.069Z,22.530816
2018-04-02T02:11:41.224Z,22.530816
2018-04-02T02:11:53.357Z,22.530816
2018-04-02T02:12:05.507Z,11.265408
2018-04-02T02:12:17.655Z,17.702784
2018-04-02T02:12:29.863Z,17.702784
2018-04-02T02:12:42.024Z,17.702784
2018-04-02T02:12:54.233Z,17.702784
2018-04-02T02:13:06.501Z,14.484096
2018-04-02T02:13:18.675Z,14.484096
2018-04-02T02:13:30.815Z,14.484096
2018-04-02T02:13:42.953Z,14.484096
2018-04-02T02:13:55.098Z,14.484096
2018-04-02T02:14:07.239Z,12.874752
2018-04-02T02:14:19.384Z,14.484096
2018-04-02T02:14:31.514Z,14.484096
2018-04-02T02:14:43.662Z,14.484096
2018-04-02T02:14:55.796Z,14.484096
2018-04-02T02:15:07.940Z,9.656064
2018-04-02T02:15:20.084Z,12.874752
2018-04-02T02:15:32.218Z,14.484096
2018-04-02T02:15:44.360Z,14.484096
2018-04-02T02:15:56.487Z,19.312128
2018-04-02T02:16:08.763Z,14.484096
2018-04-02T02:16:20.899Z,17.702784
2018-04-02T02:16:33.015Z,17.702784
2018-04-02T02:16:45.155Z,17.702784
2018-04-02T02:16:57.300Z,17.702784
2018-04-02T02:17:09.492Z,11.265408
2018-04-02T02:17:21.680Z,14.484096
2018-04-02T02:17:33.814Z,14.484096
2018-04-02T02:17:46.025Z,14.484096
2018-04-02T02:17:58.161Z,16.09344
2018-04-02T02:18:10.309Z,14.484096
2018-04-02T02:18:22.469Z,14.484096
2018-04-02T02:18:34.609Z,14.484096
2018-04-02T02:18:46.735Z,14.484096
2018-04-02T02:18:58.957Z,14.484096
2018-04-02T02:19:11.096Z,6.437376
2018-04-02T02:19:23.232Z,6.437376
2018-04-02T02:19:35.362Z,6.437376
2018-04-02T02:19:47.504Z,9.656064
2018-04-02T02:19:59.657Z,16.09344
2018-04-02T02:20:11.859Z,8.04672
2018-04-02T02:20:24.013Z,14.484096